sensor_id;sensor_type;location;lat;lon;timestamp;pressure;altitude;pressure_sealevel;temperature;humidity
49451;BME280;35336;48.400;10.886;2023-05-21T00:00:00;95863.28;;;15.52;79.75
49451;BME280;35336;48.400;10.886;2023-05-21T00:00:15;95837.00;;;15.43;79.82
49451;BME280;35336;48.400;10.886;2023-05-21T00:00:30;95843.88;;;15.50;79.90
49451;BME280;35336;48.400;10.886;2023-05-21T00:00:46;95853.59;;;15.51;80.01
49451;BME280;35336;48.400;10.886;2023-05-21T00:01:02;95860.59;;;15.52;79.95
49451;BME280;35336;48.400;10.886;2023-05-21T00:01:18;95856.03;;;15.53;79.75
49451;BME280;35336;48.400;10.886;2023-05-21T00:01:33;95844.13;;;15.49;79.89
49451;BME280;35336;48.400;10.886;2023-05-21T00:01:48;95843.31;;;15.48;79.78
49451;BME280;35336;48.400;10.886;2023-05-21T00:02:04;95852.53;;;15.52;79.81
49451;BME280;35336;48.400;10.886;2023-05-21T00:02:19;95849.94;;;15.57;79.68
49451;BME280;35336;48.400;10.886;2023-05-21T00:02:34;95845.59;;;15.56;79.59
49451;BME280;35336;48.400;10.886;2023-05-21T00:02:50;95856.09;;;15.58;79.24
49451;BME280;35336;48.400;10.886;2023-05-21T00:03:05;95841.78;;;15.52;79.26
49451;BME280;35336;48.400;10.886;2023-05-21T00:03:20;95854.72;;;15.55;78.85
49451;BME280;35336;48.400;10.886;2023-05-21T00:03:35;95848.69;;;15.48;79.32
49451;BME280;35336;48.400;10.886;2023-05-21T00:03:51;95853.09;;;15.54;79.02
49451;BME280;35336;48.400;10.886;2023-05-21T00:04:06;95842.72;;;15.46;79.24
49451;BME280;35336;48.400;10.886;2023-05-21T00:04:21;95855.34;;;15.46;79.34
49451;BME280;35336;48.400;10.886;2023-05-21T00:04:37;95842.88;;;15.39;79.53
49451;BME280;35336;48.400;10.886;2023-05-21T00:04:52;95841.25;;;15.38;79.45
49451;BME280;35336;48.400;10.886;2023-05-21T00:05:08;95849.06;;;15.40;79.43
49451;BME280;35336;48.400;10.886;2023-05-21T00:05:23;95846.88;;;15.37;79.52
49451;BME280;35336;48.400;10.886;2023-05-21T00:05:39;95850.09;;;15.39;79.51
49451;BME280;35336;48.400;10.886;2023-05-21T00:05:55;95850.22;;;15.44;79.38
49451;BME280;35336;48.400;10.886;2023-05-21T00:06:13;95849.97;;;15.46;79.55
49451;BME280;35336;48.400;10.886;2023-05-21T00:06:28;95854.06;;;15.48;79.35
49451;BME280;35336;48.400;10.886;2023-05-21T00:06:43;95844.00;;;15.44;79.32
49451;BME280;35336;48.400;10.886;2023-05-21T00:06:59;95851.63;;;15.47;79.24
49451;BME280;35336;48.400;10.886;2023-05-21T00:07:14;95847.03;;;15.47;79.45
49451;BME280;35336;48.400;10.886;2023-05-21T00:07:31;95838.31;;;15.40;79.26
49451;BME280;35336;48.400;10.886;2023-05-21T00:07:47;95843.81;;;15.45;79.46
49451;BME280;35336;48.400;10.886;2023-05-21T00:08:02;95847.03;;;15.47;79.45
49451;BME280;35336;48.400;10.886;2023-05-21T00:08:17;95847.53;;;15.44;79.14
49451;BME280;35336;48.400;10.886;2023-05-21T00:08:33;95852.91;;;15.44;79.17
49451;BME280;35336;48.400;10.886;2023-05-21T00:08:48;95845.91;;;15.43;79.32
49451;BME280;35336;48.400;10.886;2023-05-21T00:09:05;95844.59;;;15.46;79.22
49451;BME280;35336;48.400;10.886;2023-05-21T00:09:20;95842.38;;;15.43;79.37
49451;BME280;35336;48.400;10.886;2023-05-21T00:09:36;95850.22;;;15.44;79.11
49451;BME280;35336;48.400;10.886;2023-05-21T00:09:51;95853.13;;;15.43;79.47
49451;BME280;35336;48.400;10.886;2023-05-21T00:10:07;95848.84;;;15.42;79.51
49451;BME280;35336;48.400;10.886;2023-05-21T00:10:22;95841.50;;;15.37;79.40
49451;BME280;35336;48.400;10.886;2023-05-21T00:10:38;95850.44;;;15.43;79.44
49451;BME280;35336;48.400;10.886;2023-05-21T00:10:53;95853.97;;;15.43;79.41
49451;BME280;35336;48.400;10.886;2023-05-21T00:11:08;95853.97;;;15.43;79.47
49451;BME280;35336;48.400;10.886;2023-05-21T00:11:24;95841.25;;;15.38;79.21
49451;BME280;35336;48.400;10.886;2023-05-21T00:11:39;95846.63;;;15.38;79.46
49451;BME280;35336;48.400;10.886;2023-05-21T00:11:54;95849.06;;;15.40;79.58
49451;BME280;35336;48.400;10.886;2023-05-21T00:12:10;95834.94;;;15.33;79.57
49451;BME280;35336;48.400;10.886;2023-05-21T00:12:25;95842.78;;;15.34;79.74
49451;BME280;35336;48.400;10.886;2023-05-21T00:12:40;95850.94;;;15.39;79.63
49451;BME280;35336;48.400;10.886;2023-05-21T00:12:55;95850.09;;;15.39;79.65
49451;BME280;35336;48.400;10.886;2023-05-21T00:13:11;95840.56;;;15.31;79.51
49451;BME280;35336;48.400;10.886;2023-05-21T00:13:26;95841.50;;;15.37;79.56
49451;BME280;35336;48.400;10.886;2023-05-21T00:13:41;95852.56;;;15.40;79.69
49451;BME280;35336;48.400;10.886;2023-05-21T00:13:57;95845.56;;;15.39;79.64
49451;BME280;35336;48.400;10.886;2023-05-21T00:14:12;95845.81;;;15.38;79.63
49451;BME280;35336;48.400;10.886;2023-05-21T00:14:28;95846.88;;;15.37;79.56
49451;BME280;35336;48.400;10.886;2023-05-21T00:14:43;95852.22;;;15.37;79.57
49451;BME280;35336;48.400;10.886;2023-05-21T00:15:00;95837.53;;;15.28;79.71
49451;BME280;35336;48.400;10.886;2023-05-21T00:15:15;95851.41;;;15.36;79.46
49451;BME280;35336;48.400;10.886;2023-05-21T00:15:31;95852.22;;;15.37;79.73
49451;BME280;35336;48.400;10.886;2023-05-21T00:15:46;95848.97;;;15.35;79.68
49451;BME280;35336;48.400;10.886;2023-05-21T00:16:01;95838.13;;;15.30;79.71
49451;BME280;35336;48.400;10.886;2023-05-21T00:16:17;95848.16;;;15.34;79.82
49451;BME280;35336;48.400;10.886;2023-05-21T00:16:32;95845.47;;;15.34;79.81
49451;BME280;35336;48.400;10.886;2023-05-21T00:16:47;95846.03;;;15.36;79.82
49451;BME280;35336;48.400;10.886;2023-05-21T00:17:03;95846.03;;;15.36;79.79
49451;BME280;35336;48.400;10.886;2023-05-21T00:17:18;95832.16;;;15.28;79.73
49451;BME280;35336;48.400;10.886;2023-05-21T00:17:33;95845.22;;;15.36;79.72
49451;BME280;35336;48.400;10.886;2023-05-21T00:17:49;95837.88;;;15.31;79.97
49451;BME280;35336;48.400;10.886;2023-05-21T00:18:04;95847.09;;;15.35;79.94
49451;BME280;35336;48.400;10.886;2023-05-21T00:18:20;95840.31;;;15.33;79.80
49451;BME280;35336;48.400;10.886;2023-05-21T00:18:36;95836.84;;;15.32;79.77
49451;BME280;35336;48.400;10.886;2023-05-21T00:18:51;95840.31;;;15.33;79.92
49451;BME280;35336;48.400;10.886;2023-05-21T00:19:06;95850.34;;;15.37;79.97
49451;BME280;35336;48.400;10.886;2023-05-21T00:19:22;95843.13;;;15.38;79.91
49451;BME280;35336;48.400;10.886;2023-05-21T00:19:37;95830.88;;;15.30;79.63
49451;BME280;35336;48.400;10.886;2023-05-21T00:19:53;95833.31;;;15.32;79.69
49451;BME280;35336;48.400;10.886;2023-05-21T00:20:08;95827.94;;;15.32;79.70
49451;BME280;35336;48.400;10.886;2023-05-21T00:20:23;95845.56;;;15.39;79.72
49451;BME280;35336;48.400;10.886;2023-05-21T00:20:39;95851.53;;;15.42;79.74
49451;BME280;35336;48.400;10.886;2023-05-21T00:20:54;95843.47;;;15.42;79.81
49451;BME280;35336;48.400;10.886;2023-05-21T00:21:09;95840.09;;;15.34;79.45
49451;BME280;35336;48.400;10.886;2023-05-21T00:21:25;95830.53;;;15.27;79.50
49451;BME280;35336;48.400;10.886;2023-05-21T00:21:40;95831.72;;;15.31;79.67
49451;BME280;35336;48.400;10.886;2023-05-21T00:21:55;95834.94;;;15.33;79.57
49451;BME280;35336;48.400;10.886;2023-05-21T00:22:10;95831.22;;;15.34;79.56
49451;BME280;35336;48.400;10.886;2023-05-21T00:22:26;95842.53;;;15.36;79.64
49451;BME280;35336;48.400;10.886;2023-05-21T00:22:41;95839.03;;;15.35;79.51
49451;BME280;35336;48.400;10.886;2023-05-21T00:22:58;95840.09;;;15.34;79.82
49451;BME280;35336;48.400;10.886;2023-05-21T00:23:13;95835.44;;;15.30;79.78
49451;BME280;35336;48.400;10.886;2023-05-21T00:23:28;95828.44;;;15.29;79.66
49451;BME280;35336;48.400;10.886;2023-05-21T00:23:43;95843.25;;;15.31;79.88
49451;BME280;35336;48.400;10.886;2023-05-21T00:23:59;95839.50;;;15.32;79.74
49451;BME280;35336;48.400;10.886;2023-05-21T00:24:14;95842.09;;;15.27;80.08
49451;BME280;35336;48.400;10.886;2023-05-21T00:24:29;95839.75;;;15.31;79.88
49451;BME280;35336;48.400;10.886;2023-05-21T00:24:45;95823.69;;;15.19;80.18
49451;BME280;35336;48.400;10.886;2023-05-21T00:25:00;95831.38;;;15.27;80.00
49451;BME280;35336;48.400;10.886;2023-05-21T00:25:16;95824.50;;;15.19;80.20
49451;BME280;35336;48.400;10.886;2023-05-21T00:25:31;95835.44;;;15.30;80.15
49451;BME280;35336;48.400;10.886;2023-05-21T00:25:46;95831.59;;;15.25;80.24
49451;BME280;35336;48.400;10.886;2023-05-21T00:26:02;95839.97;;;15.29;80.07
49451;BME280;35336;48.400;10.886;2023-05-21T00:26:17;95834.06;;;15.27;80.05
49451;BME280;35336;48.400;10.886;2023-05-21T00:26:32;95839.19;;;15.29;80.00
49451;BME280;35336;48.400;10.886;2023-05-21T00:26:48;95830.53;;;15.27;80.33
49451;BME280;35336;48.400;10.886;2023-05-21T00:27:03;95811.19;;;15.13;80.36
49451;BME280;35336;48.400;10.886;2023-05-21T00:27:18;95831.50;;;15.20;80.38
49451;BME280;35336;48.400;10.886;2023-05-21T00:27:34;95829.06;;;15.19;80.37
49451;BME280;35336;48.400;10.886;2023-05-21T00:27:49;95832.88;;;15.23;80.49
49451;BME280;35336;48.400;10.886;2023-05-21T00:28:04;95834.53;;;15.24;80.49
49451;BME280;35336;48.400;10.886;2023-05-21T00:28:20;95829.84;;;15.19;80.25
49451;BME280;35336;48.400;10.886;2023-05-21T00:28:35;95834.75;;;15.22;80.40
49451;BME280;35336;48.400;10.886;2023-05-21T00:28:50;95824.50;;;15.19;80.30
49451;BME280;35336;48.400;10.886;2023-05-21T00:29:05;95820.75;;;15.20;80.43
49451;BME280;35336;48.400;10.886;2023-05-21T00:29:22;95826.13;;;15.20;80.29
49451;BME280;35336;48.400;10.886;2023-05-21T00:29:37;95828.91;;;15.25;80.52
49451;BME280;35336;48.400;10.886;2023-05-21T00:29:52;95825.66;;;15.23;80.31
49451;BME280;35336;48.400;10.886;2023-05-21T00:30:08;95840.22;;;15.28;80.22
49451;BME280;35336;48.400;10.886;2023-05-21T00:30:23;95839.19;;;15.29;80.33
49451;BME280;35336;48.400;10.886;2023-05-21T00:30:39;95837.53;;;15.28;80.34
49451;BME280;35336;48.400;10.886;2023-05-21T00:30:54;95828.09;;;15.25;80.25
49451;BME280;35336;48.400;10.886;2023-05-21T00:31:09;95841.28;;;15.27;80.37
49451;BME280;35336;48.400;10.886;2023-05-21T00:31:25;95820.88;;;15.14;80.24
49451;BME280;35336;48.400;10.886;2023-05-21T00:31:40;95834.28;;;15.25;80.15
49451;BME280;35336;48.400;10.886;2023-05-21T00:31:55;95828.81;;;15.20;80.21
49451;BME280;35336;48.400;10.886;2023-05-21T00:32:10;95826.38;;;15.19;80.34
49451;BME280;35336;48.400;10.886;2023-05-21T00:32:26;95834.53;;;15.24;80.18
49451;BME280;35336;48.400;10.886;2023-05-21T00:32:41;95842.56;;;15.24;80.17
49451;BME280;35336;48.400;10.886;2023-05-21T00:32:56;95833.72;;;15.23;80.31
49451;BME280;35336;48.400;10.886;2023-05-21T00:33:12;95818.69;;;15.11;80.21
49451;BME280;35336;48.400;10.886;2023-05-21T00:33:27;95833.94;;;15.22;80.49
49451;BME280;35336;48.400;10.886;2023-05-21T00:33:42;95819.25;;;15.13;80.11
49451;BME280;35336;48.400;10.886;2023-05-21T00:33:58;95836.41;;;15.23;80.24
49451;BME280;35336;48.400;10.886;2023-05-21T00:34:13;95837.44;;;15.22;80.28
49451;BME280;35336;48.400;10.886;2023-05-21T00:34:28;95834.19;;;15.20;80.18
49451;BME280;35336;48.400;10.886;2023-05-21T00:34:44;95833.72;;;15.23;79.98
49451;BME280;35336;48.400;10.886;2023-05-21T00:34:59;95820.41;;;15.17;80.08
49451;BME280;35336;48.400;10.886;2023-05-21T00:35:14;95820.66;;;15.15;80.16
49451;BME280;35336;48.400;10.886;2023-05-21T00:35:30;95820.53;;;15.10;79.98
49451;BME280;35336;48.400;10.886;2023-05-21T00:35:45;95827.16;;;15.19;80.16
49451;BME280;35336;48.400;10.886;2023-05-21T00:36:00;95824.94;;;15.16;80.20
49451;BME280;35336;48.400;10.886;2023-05-21T00:36:16;95834.75;;;15.22;80.38
49451;BME280;35336;48.400;10.886;2023-05-21T00:36:31;95832.88;;;15.23;80.16
49451;BME280;35336;48.400;10.886;2023-05-21T00:36:46;95828.56;;;15.22;80.28
49451;BME280;35336;48.400;10.886;2023-05-21T00:37:02;95829.41;;;15.22;79.95
49451;BME280;35336;48.400;10.886;2023-05-21T00:37:17;95830.19;;;15.23;80.04
49451;BME280;35336;48.400;10.886;2023-05-21T00:37:32;95817.13;;;15.15;80.10
49451;BME280;35336;48.400;10.886;2023-05-21T00:37:48;95818.44;;;15.12;79.96
49451;BME280;35336;48.400;10.886;2023-05-21T00:38:03;95827.41;;;15.18;79.96
49451;BME280;35336;48.400;10.886;2023-05-21T00:38:18;95822.84;;;15.18;80.02
49451;BME280;35336;48.400;10.886;2023-05-21T00:38:33;95811.44;;;15.11;79.93
49451;BME280;35336;48.400;10.886;2023-05-21T00:38:49;95828.00;;;15.20;79.98
49451;BME280;35336;48.400;10.886;2023-05-21T00:39:05;95815.03;;;15.17;79.97
49451;BME280;35336;48.400;10.886;2023-05-21T00:39:20;95808.16;;;15.09;79.81
49451;BME280;35336;48.400;10.886;2023-05-21T00:39:35;95834.75;;;15.22;80.12
49451;BME280;35336;48.400;10.886;2023-05-21T00:39:51;95825.78;;;15.17;80.07
49451;BME280;35336;48.400;10.886;2023-05-21T00:40:07;95823.56;;;15.14;80.28
49451;BME280;35336;48.400;10.886;2023-05-21T00:40:22;95828.22;;;15.18;80.20
49451;BME280;35336;48.400;10.886;2023-05-21T00:40:37;95827.88;;;15.15;80.18
49451;BME280;35336;48.400;10.886;2023-05-21T00:40:53;95829.84;;;15.19;80.14
49451;BME280;35336;48.400;10.886;2023-05-21T00:41:09;95825.44;;;15.13;80.36
49451;BME280;35336;48.400;10.886;2023-05-21T00:41:24;95815.41;;;15.08;80.23
49451;BME280;35336;48.400;10.886;2023-05-21T00:41:40;95825.19;;;15.15;80.13
49451;BME280;35336;48.400;10.886;2023-05-21T00:41:55;95827.16;;;15.19;80.07
49451;BME280;35336;48.400;10.886;2023-05-21T00:42:10;95836.16;;;15.25;79.91
49451;BME280;35336;48.400;10.886;2023-05-21T00:42:26;95836.97;;;15.25;79.95
49451;BME280;35336;48.400;10.886;2023-05-21T00:42:41;95829.06;;;15.19;79.90
49451;BME280;35336;48.400;10.886;2023-05-21T00:42:57;95815.50;;;15.14;79.88
49451;BME280;35336;48.400;10.886;2023-05-21T00:43:12;95832.88;;;15.23;79.85
49451;BME280;35336;48.400;10.886;2023-05-21T00:43:27;95824.41;;;15.14;79.88
49451;BME280;35336;48.400;10.886;2023-05-21T00:43:43;95834.97;;;15.21;80.06
49451;BME280;35336;48.400;10.886;2023-05-21T00:43:58;95827.06;;;15.14;79.80
49451;BME280;35336;48.400;10.886;2023-05-21T00:44:14;95825.78;;;15.17;79.95
49451;BME280;35336;48.400;10.886;2023-05-21T00:44:29;95827.88;;;15.15;80.11
49451;BME280;35336;48.400;10.886;2023-05-21T00:44:44;95823.81;;;15.12;79.91
49451;BME280;35336;48.400;10.886;2023-05-21T00:45:00;95827.06;;;15.14;80.08
49451;BME280;35336;48.400;10.886;2023-05-21T00:45:15;95827.53;;;15.11;79.90
49451;BME280;35336;48.400;10.886;2023-05-21T00:45:31;95831.88;;;15.12;80.20
49451;BME280;35336;48.400;10.886;2023-05-21T00:45:46;95821.50;;;15.04;79.85
49451;BME280;35336;48.400;10.886;2023-05-21T00:46:01;95818.09;;;15.08;80.04
49451;BME280;35336;48.400;10.886;2023-05-21T00:46:18;95832.44;;;15.14;79.91
49451;BME280;35336;48.400;10.886;2023-05-21T00:46:33;95820.53;;;15.10;79.94
49451;BME280;35336;48.400;10.886;2023-05-21T00:46:49;95828.13;;;15.13;79.88
49451;BME280;35336;48.400;10.886;2023-05-21T00:47:05;95818.34;;;15.07;79.78
49451;BME280;35336;48.400;10.886;2023-05-21T00:47:20;95827.53;;;15.11;79.94
49451;BME280;35336;48.400;10.886;2023-05-21T00:47:36;95827.53;;;15.11;79.73
49451;BME280;35336;48.400;10.886;2023-05-21T00:47:51;95831.88;;;15.12;79.93
49451;BME280;35336;48.400;10.886;2023-05-21T00:48:07;95831.63;;;15.14;79.71
49451;BME280;35336;48.400;10.886;2023-05-21T00:48:22;95829.28;;;15.17;79.80
49451;BME280;35336;48.400;10.886;2023-05-21T00:48:38;95814.38;;;15.09;79.59
49451;BME280;35336;48.400;10.886;2023-05-21T00:48:54;95825.91;;;15.10;79.46
49451;BME280;35336;48.400;10.886;2023-05-21T00:49:10;95831.16;;;15.17;79.64
49451;BME280;35336;48.400;10.886;2023-05-21T00:49:25;95821.38;;;15.11;79.42
49451;BME280;35336;48.400;10.886;2023-05-21T00:49:41;95828.22;;;15.18;79.71
49451;BME280;35336;48.400;10.886;2023-05-21T00:49:56;95815.88;;;15.05;79.45
49451;BME280;35336;48.400;10.886;2023-05-21T00:50:12;95826.25;;;15.14;79.71
49451;BME280;35336;48.400;10.886;2023-05-21T00:50:27;95823.81;;;15.12;79.62
49451;BME280;35336;48.400;10.886;2023-05-21T00:50:42;95830.72;;;15.08;79.88
49451;BME280;35336;48.400;10.886;2023-05-21T00:50:58;95828.59;;;15.10;79.93
49451;BME280;35336;48.400;10.886;2023-05-21T00:51:14;95821.03;;;15.07;79.91
49451;BME280;35336;48.400;10.886;2023-05-21T00:51:30;95814.47;;;15.03;80.05
49451;BME280;35336;48.400;10.886;2023-05-21T00:51:45;95822.66;;;15.08;79.97
49451;BME280;35336;48.400;10.886;2023-05-21T00:52:00;95831.28;;;15.10;79.95
49451;BME280;35336;48.400;10.886;2023-05-21T00:52:16;95831.28;;;15.10;80.02
49451;BME280;35336;48.400;10.886;2023-05-21T00:52:31;95819.84;;;15.03;80.00
49451;BME280;35336;48.400;10.886;2023-05-21T00:52:46;95828.84;;;15.08;79.92
49451;BME280;35336;48.400;10.886;2023-05-21T00:53:02;95826.16;;;15.08;79.96
49451;BME280;35336;48.400;10.886;2023-05-21T00:53:17;95819.06;;;15.02;79.94
49451;BME280;35336;48.400;10.886;2023-05-21T00:53:33;95832.66;;;15.13;79.93
49451;BME280;35336;48.400;10.886;2023-05-21T00:53:50;95814.47;;;15.03;79.53
49451;BME280;35336;48.400;10.886;2023-05-21T00:54:06;95822.06;;;15.06;79.46
49451;BME280;35336;48.400;10.886;2023-05-21T00:54:22;95832.91;;;15.11;79.73
49451;BME280;35336;48.400;10.886;2023-05-21T00:54:38;95829.97;;;15.13;79.71
49451;BME280;35336;48.400;10.886;2023-05-21T00:54:53;95812.84;;;15.02;79.50
49451;BME280;35336;48.400;10.886;2023-05-21T00:55:09;95808.56;;;15.01;79.74
49451;BME280;35336;48.400;10.886;2023-05-21T00:55:24;95836.44;;;15.12;79.69
49451;BME280;35336;48.400;10.886;2023-05-21T00:55:40;95818.81;;;15.04;79.59
49451;BME280;35336;48.400;10.886;2023-05-21T00:55:56;95830.22;;;15.11;79.54
49451;BME280;35336;48.400;10.886;2023-05-21T00:56:11;95833.97;;;15.10;79.51
49451;BME280;35336;48.400;10.886;2023-05-21T00:56:27;95828.03;;;15.08;79.66
49451;BME280;35336;48.400;10.886;2023-05-21T00:56:43;95830.47;;;15.09;79.60
49451;BME280;35336;48.400;10.886;2023-05-21T00:56:58;95828.03;;;15.08;79.94
49451;BME280;35336;48.400;10.886;2023-05-21T00:57:16;95820.91;;;15.02;79.86
49451;BME280;35336;48.400;10.886;2023-05-21T00:57:33;95829.31;;;15.05;79.83
49451;BME280;35336;48.400;10.886;2023-05-21T00:57:48;95820.91;;;15.02;79.76
49451;BME280;35336;48.400;10.886;2023-05-21T00:58:05;95819.50;;;14.99;80.03
49451;BME280;35336;48.400;10.886;2023-05-21T00:58:21;95838.19;;;15.06;79.77
49451;BME280;35336;48.400;10.886;2023-05-21T00:58:36;95832.22;;;15.04;79.91
49451;BME280;35336;48.400;10.886;2023-05-21T00:58:56;95833.06;;;15.04;80.06
49451;BME280;35336;48.400;10.886;2023-05-21T00:59:13;95818.72;;;14.99;79.98
49451;BME280;35336;48.400;10.886;2023-05-21T00:59:30;95832.72;;;15.01;79.97
49451;BME280;35336;48.400;10.886;2023-05-21T00:59:47;95830.03;;;15.01;79.87
49451;BME280;35336;48.400;10.886;2023-05-21T01:00:05;95823.50;;;14.97;79.94
49451;BME280;35336;48.400;10.886;2023-05-21T01:00:21;95830.03;;;15.01;79.95
49451;BME280;35336;48.400;10.886;2023-05-21T01:00:37;95827.81;;;14.98;80.05
49451;BME280;35336;48.400;10.886;2023-05-21T01:00:52;95830.50;;;14.98;80.05
49451;BME280;35336;48.400;10.886;2023-05-21T01:01:08;95814.28;;;14.92;80.21
49451;BME280;35336;48.400;10.886;2023-05-21T01:01:24;95835.16;;;15.02;79.82
49451;BME280;35336;48.400;10.886;2023-05-21T01:01:39;95833.28;;;15.03;80.14
49451;BME280;35336;48.400;10.886;2023-05-21T01:01:55;95827.56;;;14.99;80.12
49451;BME280;35336;48.400;10.886;2023-05-21T01:02:10;95829.44;;;14.99;80.07
49451;BME280;35336;48.400;10.886;2023-05-21T01:02:26;95815.59;;;14.90;79.87
49451;BME280;35336;48.400;10.886;2023-05-21T01:02:42;95825.38;;;14.96;80.00
49451;BME280;35336;48.400;10.886;2023-05-21T01:02:57;95831.88;;;15.00;79.96
49451;BME280;35336;48.400;10.886;2023-05-21T01:03:13;95824.06;;;14.99;79.89
49451;BME280;35336;48.400;10.886;2023-05-21T01:03:29;95819.16;;;14.96;79.95
49451;BME280;35336;48.400;10.886;2023-05-21T01:03:44;95830.03;;;15.01;80.16
49451;BME280;35336;48.400;10.886;2023-05-21T01:04:00;95807.75;;;14.88;80.14
49451;BME280;35336;48.400;10.886;2023-05-21T01:04:15;95826.19;;;14.97;80.01
49451;BME280;35336;48.400;10.886;2023-05-21T01:04:31;95831.88;;;15.00;79.97
49451;BME280;35336;48.400;10.886;2023-05-21T01:04:46;95832.94;;;14.99;80.04
49451;BME280;35336;48.400;10.886;2023-05-21T01:05:02;95833.97;;;14.98;80.07
49451;BME280;35336;48.400;10.886;2023-05-21T01:05:18;95832.13;;;14.99;79.79
49451;BME280;35336;48.400;10.886;2023-05-21T01:05:34;95829.44;;;14.99;79.83
49451;BME280;35336;48.400;10.886;2023-05-21T01:05:50;95823.97;;;14.93;79.95
49451;BME280;35336;48.400;10.886;2023-05-21T01:06:07;95827.00;;;14.97;80.01
49451;BME280;35336;48.400;10.886;2023-05-21T01:06:22;95829.91;;;14.96;80.08
49451;BME280;35336;48.400;10.886;2023-05-21T01:06:38;95831.19;;;14.93;80.11
49451;BME280;35336;48.400;10.886;2023-05-21T01:06:53;95833.44;;;14.96;80.27
49451;BME280;35336;48.400;10.886;2023-05-21T01:07:08;95833.66;;;14.95;80.31
49451;BME280;35336;48.400;10.886;2023-05-21T01:07:23;95828.28;;;14.95;80.26
49451;BME280;35336;48.400;10.886;2023-05-21T01:07:39;95823.28;;;14.86;80.44
49451;BME280;35336;48.400;10.886;2023-05-21T01:07:56;95835.44;;;14.89;80.62
49451;BME280;35336;48.400;10.886;2023-05-21T01:08:11;95831.53;;;14.97;80.28
49451;BME280;35336;48.400;10.886;2023-05-21T01:08:28;95830.84;;;14.89;80.44
49451;BME280;35336;48.400;10.886;2023-05-21T01:08:43;95830.16;;;14.94;80.56
49451;BME280;35336;48.400;10.886;2023-05-21T01:09:00;95817.34;;;14.84;80.56
49451;BME280;35336;48.400;10.886;2023-05-21T01:09:16;95821.06;;;14.83;80.48
49451;BME280;35336;48.400;10.886;2023-05-21T01:09:31;95816.84;;;14.87;80.68
49451;BME280;35336;48.400;10.886;2023-05-21T01:09:47;95818.50;;;14.88;80.66
49451;BME280;35336;48.400;10.886;2023-05-21T01:10:04;95824.78;;;14.94;80.71
49451;BME280;35336;48.400;10.886;2023-05-21T01:10:20;95832.03;;;14.93;80.54
49451;BME280;35336;48.400;10.886;2023-05-21T01:10:35;95820.03;;;14.84;80.49
49451;BME280;35336;48.400;10.886;2023-05-21T01:10:51;95829.56;;;14.92;80.51
49451;BME280;35336;48.400;10.886;2023-05-21T01:11:08;95827.59;;;14.87;80.70
49451;BME280;35336;48.400;10.886;2023-05-21T01:11:36;95821.06;;;14.83;80.59
49451;BME280;35336;48.400;10.886;2023-05-21T01:11:52;95825.75;;;14.88;80.35
49451;BME280;35336;48.400;10.886;2023-05-21T01:12:08;95830.84;;;14.89;80.44
49451;BME280;35336;48.400;10.886;2023-05-21T01:12:25;95830.84;;;14.89;80.65
49451;BME280;35336;48.400;10.886;2023-05-21T01:12:42;95823.75;;;14.83;80.34
49451;BME280;35336;48.400;10.886;2023-05-21T01:12:58;95824.34;;;14.85;80.41
49451;BME280;35336;48.400;10.886;2023-05-21T01:13:14;95824.81;;;14.82;80.76
49451;BME280;35336;48.400;10.886;2023-05-21T01:13:32;95826.09;;;14.80;80.92
49451;BME280;35336;48.400;10.886;2023-05-21T01:13:48;95820.38;;;14.76;80.66
49451;BME280;35336;48.400;10.886;2023-05-21T01:14:05;95811.75;;;14.74;80.78
49451;BME280;35336;48.400;10.886;2023-05-21T01:14:22;95813.88;;;14.72;80.94
49451;BME280;35336;48.400;10.886;2023-05-21T01:14:38;95826.56;;;14.76;80.97
49451;BME280;35336;48.400;10.886;2023-05-21T01:14:55;95822.03;;;14.77;81.13
49451;BME280;35336;48.400;10.886;2023-05-21T01:15:11;95815.47;;;14.73;81.23
49451;BME280;35336;48.400;10.886;2023-05-21T01:15:26;95810.59;;;14.70;81.09
49451;BME280;35336;48.400;10.886;2023-05-21T01:15:43;95808.97;;;14.69;81.20
49451;BME280;35336;48.400;10.886;2023-05-21T01:15:58;95817.94;;;14.74;81.38
49451;BME280;35336;48.400;10.886;2023-05-21T01:16:14;95822.47;;;14.74;81.51
49451;BME280;35336;48.400;10.886;2023-05-21T01:16:29;95824.59;;;14.72;81.25
49451;BME280;35336;48.400;10.886;2023-05-21T01:16:47;95802.88;;;14.61;81.53
49451;BME280;35336;48.400;10.886;2023-05-21T01:17:04;95818.16;;;14.73;81.48
49451;BME280;35336;48.400;10.886;2023-05-21T01:17:20;95808.97;;;14.69;81.32
49451;BME280;35336;48.400;10.886;2023-05-21T01:17:37;95812.22;;;14.71;81.21
49451;BME280;35336;48.400;10.886;2023-05-21T01:17:53;95822.25;;;14.75;81.10
49451;BME280;35336;48.400;10.886;2023-05-21T01:18:08;95814.91;;;14.71;81.28
49451;BME280;35336;48.400;10.886;2023-05-21T01:18:24;95827.84;;;14.74;81.22
49451;BME280;35336;48.400;10.886;2023-05-21T01:18:40;95805.31;;;14.63;81.18
49451;BME280;35336;48.400;10.886;2023-05-21T01:18:55;95824.59;;;14.72;81.21
49451;BME280;35336;48.400;10.886;2023-05-21T01:19:17;95814.56;;;14.67;81.53
49451;BME280;35336;48.400;10.886;2023-05-21T01:19:33;95820.03;;;14.72;81.38
49451;BME280;35336;48.400;10.886;2023-05-21T01:19:49;95827.84;;;14.74;81.42
49451;BME280;35336;48.400;10.886;2023-05-21T01:20:05;95811.06;;;14.67;81.56
49451;BME280;35336;48.400;10.886;2023-05-21T01:20:22;95821.34;;;14.70;81.50
49451;BME280;35336;48.400;10.886;2023-05-21T01:20:38;95822.63;;;14.67;81.61
49451;BME280;35336;48.400;10.886;2023-05-21T01:20:54;95815.63;;;14.66;81.43
49451;BME280;35336;48.400;10.886;2023-05-21T01:21:09;95819.69;;;14.69;81.59
49451;BME280;35336;48.400;10.886;2023-05-21T01:21:25;95825.66;;;14.71;81.44
49451;BME280;35336;48.400;10.886;2023-05-21T01:21:50;95825.06;;;14.69;81.53
49451;BME280;35336;48.400;10.886;2023-05-21T01:22:06;95817.91;;;14.63;81.68